createdAt,value
2017-01-12T00:00:09.500Z,0
2017-01-12T00:01:19.237Z,0
2017-01-12T00:02:29.006Z,0
2017-01-12T00:03:38.728Z,0
2017-01-12T00:04:48.440Z,0
2017-01-12T00:05:58.157Z,0
2017-01-12T00:07:07.446Z,0
2017-01-12T00:08:17.223Z,0
2017-01-12T00:09:27.392Z,0
2017-01-12T00:10:37.113Z,0
2017-01-12T00:11:47.298Z,0
2017-01-12T00:12:56.583Z,0
2017-01-12T00:14:06.800Z,0
2017-01-12T00:15:16.521Z,0
2017-01-12T00:16:26.243Z,0
2017-01-12T00:17:35.527Z,0
2017-01-12T00:18:45.684Z,0
2017-01-12T00:19:55.013Z,0
2017-01-12T00:21:04.745Z,0
2017-01-12T00:22:14.466Z,0
2017-01-12T00:23:24.623Z,0
2017-01-12T00:24:34.339Z,0
2017-01-12T00:25:43.678Z,0
2017-01-12T00:26:53.834Z,0
2017-01-12T00:28:03.987Z,0
2017-01-12T00:29:14.588Z,0
2017-01-12T00:30:23.869Z,0
2017-01-12T00:31:33.651Z,0
2017-01-12T00:32:43.379Z,0
2017-01-12T00:33:53.104Z,0
2017-01-12T00:35:02.385Z,0
2017-01-12T00:36:12.102Z,0
2017-01-12T00:37:21.875Z,0
2017-01-12T00:38:32.024Z,0
2017-01-12T00:39:41.305Z,0
2017-01-12T00:40:51.031Z,0
2017-01-12T00:42:00.748Z,0
2017-01-12T00:43:10.508Z,0
2017-01-12T00:44:20.233Z,0
2017-01-12T00:45:29.951Z,0
2017-01-12T00:46:39.671Z,0
2017-01-12T00:47:48.960Z,0
2017-01-12T00:48:58.294Z,0
2017-01-12T00:50:08.459Z,0
2017-01-12T00:51:18.185Z,0
2017-01-12T00:52:27.906Z,0
2017-01-12T00:53:37.622Z,0
2017-01-12T00:54:46.959Z,0
2017-01-12T00:55:56.692Z,0
2017-01-12T00:57:06.413Z,0
2017-01-12T00:58:17.007Z,0
2017-01-12T00:59:26.732Z,0
2017-01-12T01:00:36.069Z,0
2017-01-12T01:01:46.230Z,0
2017-01-12T01:02:55.955Z,0
2017-01-12T01:04:05.240Z,0
2017-01-12T01:05:14.961Z,0
2017-01-12T01:06:24.498Z,0
2017-01-12T01:07:34.663Z,0
2017-01-12T01:08:44.821Z,0
2017-01-12T01:09:54.102Z,0
2017-01-12T01:11:04.711Z,0
2017-01-12T01:12:14.040Z,0
2017-01-12T01:13:23.326Z,0
2017-01-12T01:14:33.921Z,0
2017-01-12T01:15:43.207Z,0
2017-01-12T01:16:52.493Z,0
2017-01-12T01:18:01.830Z,0
2017-01-12T01:19:11.111Z,0
2017-01-12T01:20:20.832Z,0
2017-01-12T01:21:31.001Z,0
2017-01-12T01:22:40.726Z,0
2017-01-12T01:23:50.495Z,0
2017-01-12T01:25:00.689Z,0
2017-01-12T01:26:10.418Z,0
2017-01-12T01:27:19.707Z,0
2017-01-12T01:28:29.008Z,0
2017-01-12T01:29:38.777Z,0
2017-01-12T01:30:48.495Z,0
2017-01-12T01:31:59.096Z,0
2017-01-12T01:33:08.373Z,0
2017-01-12T01:34:17.658Z,0
2017-01-12T01:35:27.863Z,0
2017-01-12T01:36:37.588Z,0
2017-01-12T01:37:47.757Z,0
2017-01-12T01:38:57.054Z,0
2017-01-12T01:40:06.803Z,0
2017-01-12T01:41:16.572Z,0
2017-01-12T01:42:26.738Z,0
2017-01-12T01:43:36.463Z,0
2017-01-12T01:44:47.061Z,0
2017-01-12T01:45:57.222Z,0
2017-01-12T01:47:07.001Z,0
2017-01-12T01:48:17.161Z,0
2017-01-12T01:49:26.882Z,0
2017-01-12T01:50:36.171Z,0
2017-01-12T01:51:45.917Z,0
2017-01-12T01:52:55.254Z,0
2017-01-12T01:54:06.276Z,0
2017-01-12T01:55:16.452Z,0
2017-01-12T01:56:26.182Z,0
2017-01-12T01:57:35.459Z,0
2017-01-12T01:58:45.233Z,0
2017-01-12T01:59:54.958Z,0
2017-01-12T02:01:04.279Z,0
2017-01-12T02:02:13.560Z,0
2017-01-12T02:03:22.850Z,0
2017-01-12T02:04:33.079Z,0
2017-01-12T02:05:42.809Z,0
2017-01-12T02:06:52.534Z,0
2017-01-12T02:08:02.255Z,0
2017-01-12T02:09:11.541Z,0
2017-01-12T02:10:20.873Z,0
2017-01-12T02:11:31.031Z,0
2017-01-12T02:12:40.308Z,0
2017-01-12T02:13:50.466Z,0
2017-01-12T02:15:00.187Z,0
2017-01-12T02:16:10.393Z,0
2017-01-12T02:17:19.678Z,0
2017-01-12T02:18:28.963Z,0
2017-01-12T02:19:39.132Z,0
2017-01-12T02:20:48.421Z,0
2017-01-12T02:21:58.634Z,0
2017-01-12T02:23:08.960Z,0
2017-01-12T02:24:18.713Z,0
2017-01-12T02:25:28.874Z,0
2017-01-12T02:26:39.032Z,0
2017-01-12T02:27:48.861Z,0
2017-01-12T02:28:58.586Z,0
2017-01-12T02:30:08.315Z,0
2017-01-12T02:31:18.037Z,0
2017-01-12T02:32:27.774Z,0
2017-01-12T02:33:38.023Z,0
2017-01-12T02:34:48.636Z,0
2017-01-12T02:35:58.805Z,0
2017-01-12T02:37:08.967Z,0
2017-01-12T02:38:18.256Z,0
2017-01-12T02:39:28.177Z,0
2017-01-12T02:40:37.898Z,0
2017-01-12T02:41:48.064Z,0
2017-01-12T02:42:58.249Z,0
2017-01-12T02:44:07.538Z,0
2017-01-12T02:45:16.871Z,0
2017-01-12T02:46:26.157Z,0
2017-01-12T02:47:35.873Z,0
2017-01-12T02:48:45.159Z,0
2017-01-12T02:49:54.880Z,0
2017-01-12T02:51:04.649Z,0
2017-01-12T02:52:14.811Z,0
2017-01-12T02:53:24.980Z,0
2017-01-12T02:54:34.701Z,0
2017-01-12T02:55:44.470Z,0
2017-01-12T02:56:55.120Z,0
2017-01-12T02:58:04.837Z,0
2017-01-12T02:59:15.442Z,0
2017-01-12T03:00:24.727Z,0
2017-01-12T03:01:35.321Z,0
2017-01-12T03:02:44.650Z,0
2017-01-12T03:03:55.239Z,0
2017-01-12T03:05:05.400Z,0
2017-01-12T03:06:15.570Z,0
2017-01-12T03:07:25.731Z,0
2017-01-12T03:08:35.932Z,0
2017-01-12T03:09:45.665Z,0
2017-01-12T03:10:55.387Z,0
2017-01-12T03:12:04.676Z,0
2017-01-12T03:13:14.397Z,0
2017-01-12T03:14:24.174Z,0
2017-01-12T03:15:33.459Z,0
2017-01-12T03:16:42.741Z,0
2017-01-12T03:17:52.022Z,0
2017-01-12T03:19:01.747Z,0
2017-01-12T03:20:11.516Z,0
2017-01-12T03:21:20.794Z,0
2017-01-12T03:22:30.075Z,0
2017-01-12T03:23:39.791Z,0
2017-01-12T03:24:49.081Z,0
2017-01-12T03:25:59.294Z,0
2017-01-12T03:27:08.579Z,0
2017-01-12T03:28:18.297Z,0
2017-01-12T03:29:28.453Z,0
2017-01-12T03:30:38.179Z,0
2017-01-12T03:31:48.384Z,0
2017-01-12T03:32:58.105Z,0
2017-01-12T03:34:08.270Z,0
2017-01-12T03:35:17.996Z,0
2017-01-12T03:36:28.161Z,0
2017-01-12T03:37:38.374Z,0
2017-01-12T03:38:47.659Z,0
2017-01-12T03:39:57.377Z,0
2017-01-12T03:41:07.098Z,0
2017-01-12T03:42:16.819Z,0
2017-01-12T03:43:26.156Z,0
2017-01-12T03:44:35.882Z,0
2017-01-12T03:45:46.042Z,0
2017-01-12T03:46:56.199Z,0
2017-01-12T03:48:05.918Z,0
2017-01-12T03:49:15.690Z,0
2017-01-12T03:50:24.983Z,0
2017-01-12T03:51:34.704Z,0
2017-01-12T03:52:44.870Z,0
2017-01-12T03:53:54.595Z,0
2017-01-12T03:55:04.804Z,0
2017-01-12T03:56:14.105Z,0
2017-01-12T03:57:23.827Z,0
2017-01-12T03:58:34.424Z,0
2017-01-12T03:59:43.709Z,0
2017-01-12T04:00:53.038Z,0
2017-01-12T04:02:02.751Z,0
2017-01-12T04:03:12.477Z,0
2017-01-12T04:04:22.202Z,0
2017-01-12T04:05:31.923Z,0
2017-01-12T04:06:41.688Z,0
2017-01-12T04:07:50.970Z,0
2017-01-12T04:09:00.699Z,0
2017-01-12T04:10:11.304Z,0
2017-01-12T04:11:21.470Z,0
2017-01-12T04:12:30.803Z,0
2017-01-12T04:13:40.092Z,0
2017-01-12T04:14:49.817Z,0
2017-01-12T04:15:59.099Z,0
2017-01-12T04:17:08.816Z,0
2017-01-12T04:18:18.150Z,0
2017-01-12T04:19:27.436Z,0
2017-01-12T04:20:37.592Z,0
2017-01-12T04:21:47.753Z,0
2017-01-12T04:22:57.919Z,0
2017-01-12T04:24:07.695Z,0
2017-01-12T04:25:17.421Z,0
2017-01-12T04:26:26.710Z,0
2017-01-12T04:27:36.427Z,0
2017-01-12T04:28:46.585Z,0
2017-01-12T04:29:56.350Z,0
2017-01-12T04:31:05.635Z,0
2017-01-12T04:32:16.229Z,0
2017-01-12T04:33:25.958Z,0
2017-01-12T04:34:35.687Z,0
2017-01-12T04:35:45.456Z,0
2017-01-12T04:36:55.622Z,0
2017-01-12T04:38:05.778Z,0
2017-01-12T04:39:15.508Z,0
2017-01-12T04:40:25.229Z,0
2017-01-12T04:41:35.007Z,0
2017-01-12T04:42:44.295Z,0
2017-01-12T04:43:54.012Z,0
2017-01-12T04:45:03.733Z,0
2017-01-12T04:46:13.458Z,0
2017-01-12T04:47:23.663Z,0
2017-01-12T04:48:32.945Z,0
2017-01-12T04:49:43.102Z,0
2017-01-12T04:50:52.815Z,0
2017-01-12T04:52:02.100Z,0
2017-01-12T04:53:13.181Z,0
2017-01-12T04:54:22.908Z,0
2017-01-12T04:55:32.631Z,0
2017-01-12T04:56:42.349Z,0
2017-01-12T04:57:51.630Z,0
2017-01-12T04:59:00.976Z,0
2017-01-12T05:00:10.256Z,0
2017-01-12T05:01:19.981Z,0
2017-01-12T05:02:29.722Z,0
2017-01-12T05:03:39.447Z,0
2017-01-12T05:04:49.400Z,0
2017-01-12T05:05:58.681Z,0
2017-01-12T05:07:08.835Z,0
2017-01-12T05:08:18.116Z,0
2017-01-12T05:09:27.397Z,0
2017-01-12T05:10:38.053Z,0
2017-01-12T05:11:48.223Z,0
2017-01-12T05:12:57.944Z,0
2017-01-12T05:14:07.666Z,0
2017-01-12T05:15:17.824Z,0
2017-01-12T05:16:27.160Z,0
2017-01-12T05:17:36.449Z,0
2017-01-12T05:18:46.166Z,0
2017-01-12T05:19:55.888Z,0
2017-01-12T05:21:05.613Z,0
2017-01-12T05:22:15.386Z,0
2017-01-12T05:23:24.674Z,0
2017-01-12T05:24:34.396Z,0
2017-01-12T05:25:43.678Z,0
2017-01-12T05:26:53.399Z,0
2017-01-12T05:28:03.172Z,0
2017-01-12T05:29:12.457Z,0
2017-01-12T05:30:22.198Z,0
2017-01-12T05:31:31.492Z,0
2017-01-12T05:32:41.210Z,0
2017-01-12T05:33:51.422Z,0
2017-01-12T05:35:01.587Z,0
2017-01-12T05:36:12.624Z,0
2017-01-12T05:37:21.917Z,0
2017-01-12T05:38:32.083Z,0
2017-01-12T05:39:41.420Z,0
2017-01-12T05:40:52.025Z,0
2017-01-12T05:42:02.191Z,0
2017-01-12T05:43:11.468Z,0
2017-01-12T05:44:21.629Z,0
2017-01-12T05:45:30.966Z,0
2017-01-12T05:46:40.251Z,0
2017-01-12T05:47:49.532Z,0
2017-01-12T05:48:59.265Z,0
2017-01-12T05:50:08.986Z,0
2017-01-12T05:51:18.355Z,0
2017-01-12T05:52:28.516Z,0
2017-01-12T05:53:37.798Z,0
2017-01-12T05:54:47.515Z,0
2017-01-12T05:55:56.796Z,0
2017-01-12T05:57:06.141Z,0
2017-01-12T05:58:16.310Z,0
2017-01-12T05:59:25.595Z,0
2017-01-12T06:00:34.876Z,0
2017-01-12T06:01:44.597Z,0
2017-01-12T06:02:55.246Z,0
2017-01-12T06:04:04.971Z,0
2017-01-12T06:05:14.252Z,0
2017-01-12T06:06:23.982Z,0
2017-01-12T06:07:33.707Z,0
2017-01-12T06:08:43.476Z,0
2017-01-12T06:09:52.754Z,0
2017-01-12T06:11:02.475Z,0
2017-01-12T06:12:12.636Z,0
2017-01-12T06:13:22.357Z,0
2017-01-12T06:14:32.130Z,0
2017-01-12T06:15:41.415Z,0
2017-01-12T06:16:50.696Z,0
2017-01-12T06:18:00.426Z,0
2017-01-12T06:19:10.179Z,0
2017-01-12T06:20:19.524Z,0
2017-01-12T06:21:29.237Z,0
2017-01-12T06:22:38.954Z,0
2017-01-12T06:23:49.544Z,0
2017-01-12T06:24:58.828Z,0
2017-01-12T06:26:09.042Z,0
2017-01-12T06:27:18.753Z,0
2017-01-12T06:28:28.920Z,0
2017-01-12T06:29:38.642Z,0
2017-01-12T06:30:48.803Z,0
2017-01-12T06:31:58.580Z,0
2017-01-12T06:33:09.181Z,0
2017-01-12T06:34:18.466Z,0
2017-01-12T06:35:27.755Z,0
2017-01-12T06:36:37.077Z,0
2017-01-12T06:37:47.285Z,0
2017-01-12T06:38:56.999Z,0
2017-01-12T06:40:06.736Z,0
2017-01-12T06:41:16.456Z,0
2017-01-12T06:42:26.618Z,0
2017-01-12T06:43:35.950Z,0
2017-01-12T06:44:45.664Z,0
2017-01-12T06:45:55.389Z,0
2017-01-12T06:47:04.682Z,0
2017-01-12T06:48:14.850Z,0
2017-01-12T06:49:25.947Z,0
2017-01-12T06:50:35.685Z,0
2017-01-12T06:51:44.969Z,0
2017-01-12T06:52:54.695Z,0
2017-01-12T06:54:04.859Z,0
2017-01-12T06:55:15.068Z,0
2017-01-12T06:56:24.345Z,0
2017-01-12T06:57:33.627Z,0
2017-01-12T06:58:43.355Z,0
2017-01-12T06:59:53.132Z,0
2017-01-12T07:01:03.793Z,0
2017-01-12T07:02:13.522Z,0
2017-01-12T07:03:23.671Z,0
2017-01-12T07:04:33.424Z,0
2017-01-12T07:05:43.145Z,0
2017-01-12T07:06:53.062Z,0
2017-01-12T07:08:03.237Z,0
2017-01-12T07:09:12.964Z,0
2017-01-12T07:10:23.129Z,0
2017-01-12T07:11:32.846Z,0
2017-01-12T07:12:42.615Z,0
2017-01-12T07:13:51.900Z,0
2017-01-12T07:15:01.618Z,0
2017-01-12T07:16:11.339Z,0
2017-01-12T07:17:21.060Z,0
2017-01-12T07:18:31.706Z,0
2017-01-12T07:19:42.323Z,0
2017-01-12T07:20:52.488Z,0
2017-01-12T07:22:03.109Z,0
2017-01-12T07:23:12.390Z,0
2017-01-12T07:24:22.161Z,0
2017-01-12T07:25:32.321Z,0
2017-01-12T07:26:42.498Z,0
2017-01-12T07:27:52.671Z,0
2017-01-12T07:29:02.389Z,0
2017-01-12T07:30:11.718Z,0
2017-01-12T07:31:20.999Z,0
2017-01-12T07:32:30.280Z,0
2017-01-12T07:33:40.442Z,0
2017-01-12T07:34:50.162Z,0
2017-01-12T07:35:59.492Z,0
2017-01-12T07:37:09.209Z,5
2017-01-12T07:38:18.486Z,5
2017-01-12T07:39:27.763Z,5
2017-01-12T07:40:37.481Z,5
2017-01-12T07:41:46.810Z,5
2017-01-12T07:42:56.103Z,5
2017-01-12T07:44:05.824Z,5
2017-01-12T07:45:15.982Z,5
2017-01-12T07:46:25.707Z,5
2017-01-12T07:47:35.916Z,5
2017-01-12T07:48:46.509Z,5
2017-01-12T07:49:56.223Z,5
2017-01-12T07:51:06.380Z,5
2017-01-12T07:52:16.109Z,5
2017-01-12T07:53:26.314Z,5
2017-01-12T07:54:36.040Z,5
2017-01-12T07:55:45.761Z,5
2017-01-12T07:56:55.919Z,5
2017-01-12T07:58:05.204Z,5
2017-01-12T07:59:15.417Z,5
2017-01-12T08:00:25.582Z,5
2017-01-12T08:01:35.743Z,10
2017-01-12T08:02:45.477Z,5
2017-01-12T08:03:55.634Z,5
2017-01-12T08:05:04.963Z,5
2017-01-12T08:06:14.680Z,5
2017-01-12T08:07:24.402Z,0
2017-01-12T08:08:33.695Z,0
2017-01-12T08:09:43.848Z,0
2017-01-12T08:10:54.497Z,5
2017-01-12T08:12:04.658Z,0
2017-01-12T08:13:13.944Z,5
2017-01-12T08:14:23.232Z,5
2017-01-12T08:15:33.814Z,0
2017-01-12T08:16:43.407Z,5
2017-01-12T08:17:53.136Z,5
2017-01-12T08:19:02.977Z,10
2017-01-12T08:20:13.142Z,15
2017-01-12T08:21:22.864Z,15
2017-01-12T08:22:39.157Z,15
2017-01-12T08:23:49.010Z,25
2017-01-12T08:24:59.179Z,25
2017-01-12T08:26:11.989Z,25
2017-01-12T08:27:25.554Z,25
2017-01-12T08:28:36.480Z,25
2017-01-12T08:29:46.641Z,25
2017-01-12T08:30:58.054Z,15
2017-01-12T08:32:08.807Z,15
2017-01-12T08:33:18.580Z,15
2017-01-12T08:34:30.026Z,20
2017-01-12T08:35:39.863Z,20
2017-01-12T08:36:49.668Z,25
2017-01-12T08:37:59.822Z,25
2017-01-12T08:39:10.035Z,30
2017-01-12T08:40:21.572Z,25
2017-01-12T08:41:31.921Z,20
2017-01-12T08:42:41.630Z,20
2017-01-12T08:43:53.116Z,20
2017-01-12T08:45:03.473Z,25
2017-01-12T08:46:13.637Z,25
2017-01-12T08:47:26.879Z,25
2017-01-12T08:48:36.760Z,25
2017-01-12T08:49:47.374Z,25
2017-01-12T08:50:58.707Z,30
2017-01-12T08:52:08.181Z,30
2017-01-12T08:53:17.902Z,25
2017-01-12T08:54:29.251Z,20
2017-01-12T08:55:40.541Z,25
2017-01-12T08:56:50.314Z,20
2017-01-12T08:57:59.755Z,25
2017-01-12T08:59:10.064Z,20
2017-01-12T09:00:22.885Z,20
2017-01-12T09:01:32.615Z,20
2017-01-12T09:02:42.380Z,25
2017-01-12T09:03:51.661Z,30
2017-01-12T09:05:01.390Z,35
2017-01-12T09:06:11.108Z,35
2017-01-12T09:07:21.261Z,35
2017-01-12T09:08:31.466Z,45
2017-01-12T09:09:40.744Z,40
2017-01-12T09:10:51.344Z,35
2017-01-12T09:12:03.386Z,35
2017-01-12T09:13:15.899Z,45
2017-01-12T09:14:25.856Z,35
2017-01-12T09:15:36.018Z,40
2017-01-12T09:16:48.015Z,30
2017-01-12T09:17:58.312Z,25
2017-01-12T09:19:10.205Z,30
2017-01-12T09:20:20.203Z,35
2017-01-12T09:21:29.916Z,35
2017-01-12T09:22:43.005Z,30
2017-01-12T09:23:53.742Z,40
2017-01-12T09:25:03.028Z,35
2017-01-12T09:26:14.489Z,35
2017-01-12T09:27:24.386Z,40
2017-01-12T09:28:34.999Z,45
2017-01-12T09:29:44.857Z,40
2017-01-12T09:30:54.713Z,40
2017-01-12T09:32:06.711Z,40
2017-01-12T09:33:16.885Z,40
2017-01-12T09:34:26.177Z,40
2017-01-12T09:35:38.087Z,35
2017-01-12T09:36:48.840Z,35
2017-01-12T09:37:58.613Z,45
2017-01-12T09:39:09.794Z,40
2017-01-12T09:40:20.084Z,35
2017-01-12T09:41:30.457Z,45
2017-01-12T09:42:40.323Z,50
2017-01-12T09:43:50.239Z,45
2017-01-12T09:44:59.528Z,45
2017-01-12T09:46:08.821Z,55
2017-01-12T09:47:18.984Z,45
2017-01-12T09:48:32.196Z,45
2017-01-12T09:49:42.145Z,55
2017-01-12T09:50:51.870Z,55
2017-01-12T09:52:02.968Z,40
2017-01-12T09:53:12.877Z,40
2017-01-12T09:54:22.778Z,35
2017-01-12T09:55:32.139Z,35
2017-01-12T09:56:47.525Z,45
2017-01-12T09:57:56.982Z,40
2017-01-12T09:59:07.587Z,45
2017-01-12T10:00:20.012Z,45
2017-01-12T10:01:31.526Z,45
2017-01-12T10:02:41.839Z,45
2017-01-12T10:03:51.568Z,45
2017-01-12T10:05:03.849Z,45
2017-01-12T10:06:13.366Z,40
2017-01-12T10:07:23.139Z,35
2017-01-12T10:08:35.576Z,40
2017-01-12T10:09:46.130Z,45
2017-01-12T10:10:56.763Z,40
2017-01-12T10:12:08.452Z,45
2017-01-12T10:13:24.277Z,45
2017-01-12T10:14:33.731Z,35
2017-01-12T10:15:43.456Z,40
2017-01-12T10:16:54.057Z,40
2017-01-12T10:18:03.343Z,30
2017-01-12T10:19:13.135Z,40
2017-01-12T10:20:22.857Z,40
2017-01-12T10:21:32.142Z,50
2017-01-12T10:22:41.867Z,45
2017-01-12T10:23:51.597Z,45
2017-01-12T10:25:01.826Z,45
2017-01-12T10:26:11.119Z,45
2017-01-12T10:27:20.400Z,45
2017-01-12T10:28:30.129Z,45
2017-01-12T10:29:40.030Z,45
2017-01-12T10:30:49.367Z,35
2017-01-12T10:31:58.649Z,35
2017-01-12T10:33:08.389Z,45
2017-01-12T10:34:18.552Z,45
2017-01-12T10:35:28.071Z,45
2017-01-12T10:36:38.005Z,55
2017-01-12T10:37:47.298Z,45
2017-01-12T10:38:57.471Z,50
2017-01-12T10:40:09.900Z,50
2017-01-12T10:41:22.378Z,50
2017-01-12T10:42:35.470Z,50
2017-01-12T10:43:48.308Z,55
2017-01-12T10:45:00.633Z,55
2017-01-12T10:46:12.710Z,45
2017-01-12T10:47:25.247Z,45
2017-01-12T10:48:35.236Z,45
2017-01-12T10:49:44.966Z,45
2017-01-12T10:50:58.119Z,45
2017-01-12T10:52:09.576Z,45
2017-01-12T10:53:19.349Z,60
2017-01-12T10:54:29.070Z,50
2017-01-12T10:55:38.804Z,45
2017-01-12T10:56:48.096Z,35
2017-01-12T10:57:57.378Z,35
2017-01-12T10:59:06.715Z,35
2017-01-12T11:00:16.896Z,45
2017-01-12T11:01:27.065Z,35
2017-01-12T11:02:36.353Z,40
2017-01-12T11:03:46.519Z,30
2017-01-12T11:04:56.747Z,35
2017-01-12T11:06:06.520Z,40
2017-01-12T11:07:16.249Z,40
2017-01-12T11:08:25.594Z,45
2017-01-12T11:09:34.883Z,50
2017-01-12T11:10:44.224Z,40
2017-01-12T11:11:53.517Z,30
2017-01-12T11:13:03.242Z,55
2017-01-12T11:14:13.411Z,55
2017-01-12T11:15:23.612Z,65
2017-01-12T11:16:33.399Z,55
2017-01-12T11:17:43.122Z,55
2017-01-12T11:18:53.295Z,60
2017-01-12T11:20:03.038Z,55
2017-01-12T11:21:12.769Z,55
2017-01-12T11:22:22.546Z,60
2017-01-12T11:23:32.715Z,65
2017-01-12T11:24:42.436Z,65
2017-01-12T11:25:52.596Z,65
2017-01-12T11:27:01.882Z,65
2017-01-12T11:28:12.243Z,65
2017-01-12T11:29:21.971Z,75
2017-01-12T11:30:31.693Z,65
2017-01-12T11:31:40.981Z,65
2017-01-12T11:32:50.715Z,70
2017-01-12T11:34:00.055Z,70
2017-01-12T11:35:09.348Z,40
2017-01-12T11:36:18.638Z,60
2017-01-12T11:37:28.810Z,40
2017-01-12T11:38:38.987Z,35
2017-01-12T11:39:48.760Z,20
2017-01-12T11:40:58.945Z,15
2017-01-12T11:42:09.118Z,15
2017-01-12T11:43:18.839Z,10
2017-01-12T11:44:29.440Z,10
2017-01-12T11:45:39.675Z,15
2017-01-12T11:46:49.410Z,15
2017-01-12T11:47:59.135Z,20
2017-01-12T11:49:08.864Z,20
2017-01-12T11:50:19.037Z,20
2017-01-12T11:51:28.378Z,20
2017-01-12T11:52:38.103Z,30
2017-01-12T11:53:47.406Z,35
2017-01-12T11:54:57.140Z,35
2017-01-12T11:56:08.197Z,35
2017-01-12T11:57:18.095Z,30
2017-01-12T11:58:28.267Z,45
2017-01-12T11:59:39.764Z,60
2017-01-12T12:00:50.369Z,35
2017-01-12T12:02:00.102Z,40
2017-01-12T12:03:10.323Z,50
2017-01-12T12:04:19.612Z,55
2017-01-12T12:05:28.904Z,45
2017-01-12T12:06:38.634Z,55
2017-01-12T12:07:48.362Z,40
2017-01-12T12:08:57.703Z,45
2017-01-12T12:10:07.908Z,30
2017-01-12T12:11:17.637Z,30
2017-01-12T12:12:28.238Z,45
2017-01-12T12:13:37.523Z,60
2017-01-12T12:14:47.304Z,60
2017-01-12T12:15:57.485Z,50
2017-01-12T12:17:08.746Z,35
2017-01-12T12:18:18.903Z,25
2017-01-12T12:19:28.276Z,25
2017-01-12T12:20:37.829Z,20
2017-01-12T12:21:48.331Z,30
2017-01-12T12:22:58.261Z,35
2017-01-12T12:24:07.784Z,45
2017-01-12T12:25:18.829Z,55
2017-01-12T12:26:29.070Z,60
2017-01-12T12:27:38.355Z,55
2017-01-12T12:28:49.030Z,65
2017-01-12T12:29:59.537Z,50
2017-01-12T12:31:10.535Z,50
2017-01-12T12:32:20.204Z,45
2017-01-12T12:33:30.037Z,60
2017-01-12T12:34:39.327Z,60
2017-01-12T12:35:49.708Z,55
2017-01-12T12:36:58.993Z,40
2017-01-12T12:38:09.026Z,40
2017-01-12T12:39:19.172Z,30
2017-01-12T12:40:29.917Z,25
2017-01-12T12:41:39.743Z,30
2017-01-12T12:42:49.695Z,40
2017-01-12T12:43:59.028Z,40
2017-01-12T12:45:08.754Z,50
2017-01-12T12:46:18.044Z,55
2017-01-12T12:47:27.776Z,60
2017-01-12T12:48:38.305Z,65
2017-01-12T12:49:48.959Z,75
2017-01-12T12:50:58.684Z,60
2017-01-12T12:52:09.293Z,45
2017-01-12T12:53:19.006Z,45
2017-01-12T12:54:28.295Z,40
2017-01-12T12:55:37.641Z,35
2017-01-12T12:56:47.721Z,30
2017-01-12T12:57:57.447Z,40
2017-01-12T12:59:06.732Z,45
2017-01-12T13:00:17.329Z,55
2017-01-12T13:01:26.674Z,45
2017-01-12T13:02:35.963Z,55
2017-01-12T13:03:45.809Z,45
2017-01-12T13:04:55.966Z,35
2017-01-12T13:06:05.791Z,50
2017-01-12T13:07:15.572Z,55
2017-01-12T13:08:24.862Z,50
2017-01-12T13:09:34.704Z,50
2017-01-12T13:10:45.597Z,45
2017-01-12T13:11:56.057Z,40
2017-01-12T13:13:05.399Z,40
2017-01-12T13:14:16.065Z,45
2017-01-12T13:15:27.674Z,30
2017-01-12T13:16:38.703Z,40
2017-01-12T13:17:49.677Z,25
2017-01-12T13:18:59.454Z,30
2017-01-12T13:20:08.739Z,30
2017-01-12T13:21:18.037Z,25
2017-01-12T13:22:27.793Z,25
2017-01-12T13:23:37.191Z,30
2017-01-12T13:24:48.048Z,30
2017-01-12T13:25:57.349Z,25
2017-01-12T13:27:07.707Z,25
2017-01-12T13:28:18.324Z,30
2017-01-12T13:29:28.497Z,35
2017-01-12T13:30:37.838Z,40
2017-01-12T13:31:47.575Z,40
2017-01-12T13:32:56.868Z,40
2017-01-12T13:34:06.173Z,35
2017-01-12T13:35:15.903Z,35
2017-01-12T13:36:26.680Z,35
2017-01-12T13:37:36.365Z,35
2017-01-12T13:38:46.398Z,35
2017-01-12T13:39:56.571Z,35
2017-01-12T13:41:06.521Z,35
2017-01-12T13:42:16.742Z,35
2017-01-12T13:43:26.035Z,35
2017-01-12T13:44:36.368Z,30
2017-01-12T13:45:46.586Z,30
2017-01-12T13:46:56.311Z,30
2017-01-12T13:48:06.232Z,30
2017-01-12T13:49:15.525Z,30
2017-01-12T13:50:24.810Z,30
2017-01-12T13:51:34.539Z,30
2017-01-12T13:52:45.196Z,30
2017-01-12T13:53:55.282Z,25
2017-01-12T13:55:05.891Z,25
2017-01-12T13:56:16.808Z,25
2017-01-12T13:57:26.405Z,25
2017-01-12T13:58:36.426Z,25
2017-01-12T13:59:46.211Z,25
2017-01-12T14:00:55.977Z,25
2017-01-12T14:02:06.874Z,25
2017-01-12T14:03:17.467Z,25
2017-01-12T14:04:29.533Z,25
2017-01-12T14:05:40.482Z,25
2017-01-12T14:06:49.767Z,25
2017-01-12T14:07:59.504Z,25
2017-01-12T14:09:09.237Z,25
2017-01-12T14:10:18.951Z,20
2017-01-12T14:11:29.831Z,25
2017-01-12T14:12:39.573Z,20
2017-01-12T14:13:50.182Z,20
2017-01-12T14:15:01.099Z,25
2017-01-12T14:16:11.369Z,25
2017-01-12T14:17:21.034Z,25
2017-01-12T14:18:30.759Z,25
2017-01-12T14:19:40.161Z,25
2017-01-12T14:20:50.950Z,20
2017-01-12T14:22:01.115Z,20
2017-01-12T14:23:10.777Z,20
2017-01-12T14:24:20.838Z,15
2017-01-12T14:25:30.867Z,20
2017-01-12T14:26:41.500Z,15
2017-01-12T14:27:50.794Z,15
2017-01-12T14:29:00.291Z,15
2017-01-12T14:30:10.469Z,15
2017-01-12T14:31:19.754Z,15
2017-01-12T14:32:29.479Z,15
2017-01-12T14:33:39.213Z,20
2017-01-12T14:34:48.558Z,20
2017-01-12T14:35:58.399Z,20
2017-01-12T14:37:08.769Z,15
2017-01-12T14:38:18.942Z,15
2017-01-12T14:39:29.667Z,15
2017-01-12T14:40:40.469Z,15
2017-01-12T14:41:51.590Z,10
2017-01-12T14:43:01.323Z,10
2017-01-12T14:44:10.616Z,15
2017-01-12T14:45:19.906Z,15
2017-01-12T14:46:29.987Z,10
2017-01-12T14:47:39.932Z,10
2017-01-12T14:48:49.869Z,10
2017-01-12T14:49:59.159Z,10
2017-01-12T14:51:08.481Z,10
2017-01-12T14:52:18.706Z,10
2017-01-12T14:53:28.175Z,10
2017-01-12T14:54:37.564Z,10
2017-01-12T14:55:47.735Z,10
2017-01-12T14:56:57.459Z,10
2017-01-12T14:58:07.236Z,10
2017-01-12T14:59:16.978Z,10
2017-01-12T15:00:27.135Z,10
2017-01-12T15:01:37.085Z,10
2017-01-12T15:02:48.142Z,5
2017-01-12T15:03:58.359Z,5
2017-01-12T15:05:08.095Z,5
2017-01-12T15:06:17.382Z,5
2017-01-12T15:07:27.111Z,5
2017-01-12T15:08:36.400Z,5
2017-01-12T15:09:46.453Z,5
2017-01-12T15:10:56.619Z,5
2017-01-12T15:12:05.904Z,0
2017-01-12T15:13:16.069Z,0
2017-01-12T15:16:43.553Z,0
2017-01-12T15:17:53.399Z,0
2017-01-12T15:20:12.721Z,0
2017-01-12T15:21:23.036Z,0
2017-01-12T15:22:33.103Z,0
2017-01-12T15:24:52.610Z,0
2017-01-12T15:26:04.067Z,0
2017-01-12T15:27:15.841Z,0
2017-01-12T15:29:36.535Z,0
2017-01-12T15:30:46.033Z,0
2017-01-12T15:31:55.326Z,0
2017-01-12T15:33:05.527Z,0
2017-01-12T15:34:15.869Z,0
2017-01-12T15:35:26.026Z,0
2017-01-12T15:36:36.063Z,0
2017-01-12T15:37:45.796Z,0
2017-01-12T15:38:56.077Z,0
2017-01-12T15:40:06.139Z,0
2017-01-12T15:41:15.424Z,0
2017-01-12T15:42:25.150Z,0
2017-01-12T15:43:34.442Z,0
2017-01-12T15:44:43.784Z,0
2017-01-12T15:45:53.517Z,0
2017-01-12T15:47:03.706Z,0
2017-01-12T15:48:14.388Z,0
2017-01-12T15:49:24.728Z,0
2017-01-12T15:50:34.858Z,0
2017-01-12T15:51:44.736Z,0
2017-01-12T15:52:55.900Z,0
2017-01-12T15:54:06.074Z,0
2017-01-12T15:55:15.363Z,0
2017-01-12T15:56:25.176Z,0
2017-01-12T15:57:34.909Z,0
2017-01-12T15:58:44.191Z,0
2017-01-12T15:59:54.800Z,0
2017-01-12T16:01:04.533Z,0
2017-01-12T16:02:14.351Z,0
2017-01-12T16:03:24.436Z,0
2017-01-12T16:04:35.489Z,0
2017-01-12T16:05:46.342Z,0
2017-01-12T16:06:56.591Z,0
2017-01-12T16:08:06.365Z,0
2017-01-12T16:09:16.089Z,0
2017-01-12T16:10:25.379Z,0
2017-01-12T16:11:35.037Z,0
2017-01-12T16:12:44.602Z,0
2017-01-12T16:13:55.250Z,0
2017-01-12T16:15:05.092Z,0
2017-01-12T16:16:15.814Z,0
2017-01-12T16:17:25.934Z,0
2017-01-12T16:18:36.628Z,0
2017-01-12T16:19:46.801Z,0
2017-01-12T16:20:56.530Z,0
2017-01-12T16:22:05.816Z,0
2017-01-12T16:23:15.977Z,0
2017-01-12T16:24:25.718Z,0
2017-01-12T16:25:35.507Z,0
2017-01-12T16:26:45.237Z,0
2017-01-12T16:27:54.966Z,0
2017-01-12T16:29:04.603Z,0
2017-01-12T16:30:14.368Z,0
2017-01-12T16:31:24.142Z,0
2017-01-12T16:32:34.319Z,0
2017-01-12T16:33:44.044Z,0
2017-01-12T16:34:53.777Z,0
2017-01-12T16:36:03.945Z,0
2017-01-12T16:37:14.604Z,0
2017-01-12T16:38:24.332Z,0
2017-01-12T16:39:34.366Z,0
2017-01-12T16:40:44.875Z,0
2017-01-12T16:41:54.740Z,0
2017-01-12T16:43:04.709Z,0
2017-01-12T16:44:15.019Z,0
2017-01-12T16:45:24.695Z,0
2017-01-12T16:46:34.544Z,0
2017-01-12T16:47:44.701Z,0
2017-01-12T16:48:54.043Z,0
2017-01-12T16:50:04.640Z,0
2017-01-12T16:51:14.325Z,0
2017-01-12T16:52:24.054Z,0
2017-01-12T16:53:34.659Z,0
2017-01-12T16:54:44.428Z,0
2017-01-12T16:55:53.721Z,0
2017-01-12T16:57:03.014Z,0
2017-01-12T16:58:13.184Z,0
2017-01-12T16:59:23.016Z,0
2017-01-12T17:00:33.322Z,0
2017-01-12T17:01:44.359Z,0
2017-01-12T17:02:54.092Z,0
2017-01-12T17:04:04.265Z,0
2017-01-12T17:05:13.543Z,0